Time;durP1;ratioP1;P1;durP2;ratioP2;P2;SDS_P1;SDS_P2;PMS_P1;PMS_P2;Temp;Humidity;BMP_temperature;BMP_pressure;BME280_temperature;BME280_humidity;BME280_pressure;Samples;Min_cycle;Max_cycle;Signal;HPM_P1;HPM_P2
2021/06/07 00:02:20;;;;;;;6.07;4.00;;;;;;;25.00;32.38;102236.97;5055051;28;20034;-80
2021/06/07 00:04:46;;;;;;;6.57;3.63;;;;;;;24.90;32.48;102232.84;5054936;28;20119;-82
2021/06/07 00:07:12;;;;;;;9.40;4.45;;;;;;;25.03;32.49;102242.69;5072064;28;20122;-80
2021/06/07 00:09:39;;;;;;;8.18;3.97;;;;;;;25.04;32.34;102233.09;5072818;28;20029;-81
2021/06/07 00:12:12;;;;;;;9.40;4.32;;;;;;;25.01;32.37;102233.81;5072562;28;20045;-81
2021/06/07 00:14:39;;;;;;;11.45;4.97;;;;;;;24.97;32.39;102232.16;5072766;28;20029;-81
2021/06/07 00:17:05;;;;;;;6.90;4.32;;;;;;;24.95;32.74;102228.94;5072755;28;20029;-82
2021/06/07 00:19:33;;;;;;;8.00;4.72;;;;;;;24.86;32.53;102232.81;5054876;28;20421;-81
2021/06/07 00:22:01;;;;;;;7.47;4.40;;;;;;;24.86;32.99;102226.38;5054632;28;20056;-80
2021/06/07 00:24:27;;;;;;;11.50;6.88;;;;;;;24.83;32.49;102227.94;5072989;28;20466;-81
2021/06/07 00:26:53;;;;;;;15.38;7.07;;;;;;;24.88;32.52;102230.44;5072559;28;20025;-80
2021/06/07 00:29:19;;;;;;;12.18;6.57;;;;;;;24.86;32.62;102227.22;5072716;28;20035;-81
2021/06/07 00:31:45;;;;;;;11.52;7.15;;;;;;;24.78;32.53;102219.88;5072503;28;20485;-81
2021/06/07 00:34:12;;;;;;;14.32;7.88;;;;;;;24.75;32.73;102217.84;5072491;28;20078;-82
2021/06/07 00:36:38;;;;;;;13.25;7.22;;;;;;;24.71;33.18;102218.94;5072503;28;20032;-81
2021/06/07 00:39:07;;;;;;;13.30;7.10;;;;;;;24.69;32.87;102226.91;5072448;28;20100;-81
2021/06/07 00:41:33;;;;;;;13.05;6.85;;;;;;;24.62;33.02;102222.81;5072523;28;20037;-81
2021/06/07 00:44:01;;;;;;;10.07;6.03;;;;;;;24.49;33.10;102217.81;5072415;28;20107;-81
2021/06/07 00:46:27;;;;;;;12.18;5.50;;;;;;;24.40;33.46;102214.44;5072424;28;20029;-81
2021/06/07 00:48:54;;;;;;;10.40;5.70;;;;;;;24.39;33.20;102215.59;5072379;28;20086;-81
2021/06/07 00:51:21;;;;;;;8.05;4.90;;;;;;;24.31;33.25;102209.06;5072449;28;20082;-81
2021/06/07 00:53:47;;;;;;;7.10;4.85;;;;;;;24.27;33.25;102209.00;5072405;28;20029;-80
2021/06/07 00:56:13;;;;;;;9.25;4.45;;;;;;;24.24;33.20;102209.72;5072417;28;20056;-81
2021/06/07 00:58:45;;;;;;;9.18;4.35;;;;;;;24.22;33.64;102214.09;5072417;28;20067;-81
2021/06/07 01:01:12;;;;;;;7.43;4.72;;;;;;;24.21;33.41;102207.69;5072303;28;20063;-80
2021/06/07 01:03:41;;;;;;;7.03;4.22;;;;;;;24.07;33.70;102216.59;5072165;28;20028;-80
2021/06/07 01:06:08;;;;;;;5.97;3.75;;;;;;;24.05;33.86;102204.22;5072214;28;20067;-80
2021/06/07 01:08:33;;;;;;;6.35;3.72;;;;;;;24.09;33.30;102205.88;5057386;28;20039;-81
2021/06/07 01:11:00;;;;;;;8.25;4.43;;;;;;;24.04;33.61;102200.63;5058570;28;20422;-81
2021/06/07 01:13:26;;;;;;;10.63;4.07;;;;;;;23.98;33.42;102204.88;5072244;28;20439;-81
2021/06/07 01:15:53;;;;;;;7.85;3.78;;;;;;;24.03;33.62;102200.94;5072220;28;20044;-80
2021/06/07 01:18:20;;;;;;;5.30;3.35;;;;;;;24.05;33.43;102204.22;5072231;28;20063;-81
2021/06/07 01:20:48;;;;;;;5.10;3.45;;;;;;;24.06;33.52;102198.25;5076569;28;20059;-84
2021/06/07 01:23:15;;;;;;;6.60;3.28;;;;;;;24.12;33.34;102203.53;5075937;28;20035;-80
2021/06/07 01:25:42;;;;;;;7.07;3.35;;;;;;;24.15;33.27;102203.59;5058020;28;20398;-81
2021/06/07 01:28:10;;;;;;;8.25;3.25;;;;;;;24.20;33.01;102205.28;5075841;28;20032;-81
2021/06/07 01:30:41;;;;;;;4.75;2.72;;;;;;;24.26;33.32;102203.81;5075730;28;20432;-81
2021/06/07 01:33:08;;;;;;;6.22;3.15;;;;;;;24.27;32.96;102202.63;5075970;28;20037;-81
2021/06/07 01:35:35;;;;;;;7.07;3.40;;;;;;;24.26;32.70;102201.81;5075703;28;20047;-80
2021/06/07 01:38:01;;;;;;;9.07;3.08;;;;;;;24.28;32.64;102199.44;5057894;28;20054;-81
2021/06/07 01:40:30;;;;;;;7.30;3.30;;;;;;;24.27;32.75;102200.63;5075623;28;20020;-80
2021/06/07 01:42:57;;;;;;;7.47;3.60;;;;;;;24.36;32.78;102194.81;5075515;28;20056;-81
2021/06/07 01:45:25;;;;;;;8.93;3.80;;;;;;;24.32;32.88;102189.16;5074266;28;20552;-81
2021/06/07 01:47:52;;;;;;;6.32;4.10;;;;;;;24.40;32.49;102189.28;5075447;28;20069;-81
2021/06/07 01:50:18;;;;;;;8.80;4.85;;;;;;;24.39;32.47;102193.25;5057562;28;20059;-81
2021/06/07 01:52:47;;;;;;;7.70;4.28;;;;;;;24.40;32.37;102180.91;5075386;28;20122;-87
2021/06/07 01:55:19;;;;;;;11.43;4.30;;;;;;;24.38;32.47;102188.84;5075425;28;20021;-81
2021/06/07 01:57:45;;;;;;;8.52;4.70;;;;;;;24.42;32.64;102178.56;5075313;28;20029;-81
2021/06/07 02:00:21;;;;;;;7.07;4.53;;;;;;;24.41;32.64;102185.31;5075227;28;20022;-81
2021/06/07 02:02:47;;;;;;;9.77;4.32;;;;;;;24.35;32.54;102174.47;5075177;28;20032;-80
2021/06/07 02:05:18;;;;;;;10.65;4.28;;;;;;;24.34;32.67;102177.63;5075261;28;20025;-81
2021/06/07 02:08:11;;;;;;;9.77;4.03;;;;;;;24.31;32.89;102178.34;5074398;28;20123;-81
2021/06/07 02:10:40;;;;;;;7.10;4.18;;;;;;;24.29;32.65;102175.91;5053343;28;20525;-80
2021/06/07 02:13:07;;;;;;;6.27;3.63;;;;;;;24.29;32.75;102175.91;5075180;28;20040;-81
2021/06/07 02:15:32;;;;;;;6.68;4.00;;;;;;;24.28;32.67;102168.72;5074999;28;20104;-80
2021/06/07 02:18:03;;;;;;;9.85;3.28;;;;;;;24.26;32.72;102173.88;5073727;28;20132;-80
2021/06/07 02:20:29;;;;;;;8.93;3.65;;;;;;;24.31;32.55;102170.75;5074958;28;20028;-81
2021/06/07 02:22:55;;;;;;;10.75;4.55;;;;;;;24.33;32.64;102174.03;5074789;28;20025;-81
2021/06/07 02:25:21;;;;;;;14.38;3.75;;;;;;;24.35;32.81;102179.25;5074803;28;20036;-80
2021/06/07 02:27:48;;;;;;;7.13;3.30;;;;;;;24.34;32.76;102177.63;5074802;28;20064;-81
2021/06/07 02:30:20;;;;;;;7.82;4.13;;;;;;;24.31;32.76;102167.97;5055789;28;20033;-81
2021/06/07 02:32:46;;;;;;;7.70;5.10;;;;;;;24.27;32.65;102166.31;5074709;28;20104;-81
2021/06/07 02:35:17;;;;;;;6.57;4.30;;;;;;;24.23;32.87;102171.00;5074630;28;20031;-81
2021/06/07 02:37:43;;;;;;;7.60;3.90;;;;;;;24.29;32.65;102169.53;5074929;28;20024;-81
2021/06/07 02:40:12;;;;;;;8.05;4.18;;;;;;;24.20;33.10;102174.56;5074567;28;20025;-80
2021/06/07 02:42:39;;;;;;;5.20;3.33;;;;;;;24.16;33.10;102168.91;5074480;28;20028;-81
2021/06/07 02:45:08;;;;;;;6.32;3.70;;;;;;;24.27;32.72;102155.94;5073170;28;20435;-80
2021/06/07 02:47:34;;;;;;;9.93;4.40;;;;;;;24.21;32.91;102165.81;5073064;28;20143;-81
2021/06/07 02:49:59;;;;;;;5.38;3.45;;;;;;;24.20;33.23;102161.41;5073098;28;20526;-81
2021/06/07 02:52:25;;;;;;;7.25;3.60;;;;;;;24.20;33.06;102157.81;5072970;28;20070;-81
2021/06/07 02:54:51;;;;;;;6.65;4.00;;;;;;;24.20;32.87;102155.81;5074276;28;20029;-80
2021/06/07 02:57:17;;;;;;;6.03;3.10;;;;;;;24.18;32.86;102152.59;5072884;28;20048;-80
2021/06/07 02:59:42;;;;;;;4.93;3.50;;;;;;;24.08;33.07;102158.78;5074120;28;20029;-81
2021/06/07 03:02:08;;;;;;;6.50;3.70;;;;;;;24.06;32.91;102155.56;5074104;28;20029;-82
2021/06/07 03:04:34;;;;;;;6.32;3.78;;;;;;;24.03;32.93;102148.75;5073954;28;20024;-80
2021/06/07 03:06:59;;;;;;;5.30;3.08;;;;;;;23.99;32.96;102144.25;5074043;28;20090;-81
2021/06/07 03:09:25;;;;;;;5.25;3.15;;;;;;;23.96;33.27;102147.81;5074027;28;20043;-81
2021/06/07 03:11:50;;;;;;;7.43;3.97;;;;;;;23.89;33.13;102148.47;5072360;28;20045;-81
2021/06/07 03:14:16;;;;;;;10.00;4.57;;;;;;;23.88;33.43;102144.06;5073813;28;20071;-80
2021/06/07 03:16:42;;;;;;;4.68;3.90;;;;;;;23.83;33.55;102143.56;5073518;28;20107;-81
2021/06/07 03:19:07;;;;;;;8.57;3.97;;;;;;;23.85;33.52;102144.00;5073850;28;20033;-81
2021/06/07 03:21:33;;;;;;;5.30;3.30;;;;;;;23.86;33.48;102146.41;5073734;28;20111;-80
2021/06/07 03:23:59;;;;;;;7.22;4.18;;;;;;;23.84;33.48;102143.19;5073754;28;20129;-81
2021/06/07 03:26:24;;;;;;;9.40;4.15;;;;;;;24.00;33.31;102141.09;5073714;28;20029;-80
2021/06/07 03:28:50;;;;;;;6.13;3.30;;;;;;;24.04;33.38;102139.19;5073545;28;20463;-81
2021/06/07 03:31:15;;;;;;;5.85;3.05;;;;;;;24.11;33.33;102149.69;5073653;28;20029;-80
2021/06/07 03:33:41;;;;;;;9.70;3.47;;;;;;;24.14;33.14;102140.53;5073455;28;20047;-81
2021/06/07 03:36:08;;;;;;;7.10;3.47;;;;;;;24.09;33.51;102140.84;5073476;28;20462;-81
2021/06/07 03:38:34;;;;;;;3.53;2.38;;;;;;;24.03;33.18;102139.53;5073375;28;20028;-81
2021/06/07 03:41:00;;;;;;;6.95;2.70;;;;;;;23.99;33.26;102139.47;5073236;28;20040;-81
2021/06/07 03:43:30;;;;;;;4.45;2.63;;;;;;;23.98;33.52;102135.09;5073586;28;20036;-80
2021/06/07 03:45:56;;;;;;;7.20;2.90;;;;;;;23.96;33.54;102133.84;5073296;28;20074;-81
2021/06/07 03:48:22;;;;;;;4.90;2.88;;;;;;;23.92;33.30;102127.38;5055525;28;20267;-81
2021/06/07 03:50:48;;;;;;;4.40;2.80;;;;;;;23.90;33.53;102121.38;5073187;28;20482;-81
2021/06/07 03:53:13;;;;;;;8.25;2.42;;;;;;;23.86;33.37;102124.09;5073114;28;20031;-80
2021/06/07 03:55:40;;;;;;;7.43;3.22;;;;;;;23.82;33.59;102125.22;5071946;28;20028;-81
2021/06/07 03:58:06;;;;;;;6.65;2.40;;;;;;;23.80;33.32;102120.81;5073108;28;20025;-80
2021/06/07 04:00:34;;;;;;;10.98;3.10;;;;;;;23.77;33.33;102126.31;5073055;28;20024;-80
2021/06/07 04:03:02;;;;;;;7.80;2.33;;;;;;;23.76;33.29;102113.53;5072882;28;20024;-80
2021/06/07 04:05:28;;;;;;;3.72;2.40;;;;;;;23.78;33.45;102111.97;5072886;28;20097;-80
2021/06/07 04:07:55;;;;;;;9.35;3.60;;;;;;;23.81;33.49;102116.03;5072864;28;20024;-81
2021/06/07 04:10:22;;;;;;;9.40;2.67;;;;;;;23.74;33.40;102113.91;5072862;28;20494;-81
2021/06/07 04:12:49;;;;;;;4.05;2.65;;;;;;;23.79;33.56;102113.59;5072453;28;20048;-81
2021/06/07 04:15:17;;;;;;;3.38;2.13;;;;;;;23.78;33.42;102113.97;5072921;28;20036;-81
2021/06/07 04:17:43;;;;;;;12.88;3.35;;;;;;;23.72;33.23;102110.66;5072720;28;20031;-80
2021/06/07 04:20:11;;;;;;;5.07;2.80;;;;;;;23.74;33.37;102104.75;5072748;28;20025;-81
2021/06/07 04:22:37;;;;;;;6.70;2.75;;;;;;;23.78;33.51;102105.59;5072697;28;20041;-81
2021/06/07 04:25:04;;;;;;;4.32;2.45;;;;;;;23.80;33.25;102101.28;5072612;28;20082;-81
2021/06/07 04:27:30;;;;;;;10.93;3.30;;;;;;;23.82;33.61;102100.09;5072546;28;20051;-81
2021/06/07 04:29:55;;;;;;;7.97;2.80;;;;;;;23.91;33.58;102095.88;5072776;28;20024;-81
2021/06/07 04:32:21;;;;;;;7.65;3.50;;;;;;;23.88;33.72;102099.41;5054512;28;20043;-80
2021/06/07 04:34:47;;;;;;;9.15;3.42;;;;;;;23.93;33.47;102095.50;5072559;28;20028;-81
2021/06/07 04:37:13;;;;;;;5.07;2.35;;;;;;;23.95;33.64;102096.72;5072547;28;20095;-80
2021/06/07 04:39:39;;;;;;;6.55;2.95;;;;;;;23.96;33.59;102097.56;5072578;28;20055;-81
2021/06/07 04:42:06;;;;;;;6.35;3.17;;;;;;;24.03;33.75;102100.44;5071314;28;20040;-81
2021/06/07 04:44:32;;;;;;;7.38;2.83;;;;;;;24.07;33.72;102106.91;5072562;28;20032;-81
2021/06/07 04:46:57;;;;;;;5.18;2.90;;;;;;;24.14;33.70;102111.81;5072480;28;20040;-80
2021/06/07 04:49:23;;;;;;;5.78;3.28;;;;;;;24.18;33.92;102107.09;5072442;28;20387;-81
2021/06/07 04:51:49;;;;;;;6.10;2.78;;;;;;;24.23;33.40;102112.38;5072494;28;20029;-81
2021/06/07 04:54:14;;;;;;;9.63;3.03;;;;;;;24.27;33.51;102107.66;5074285;28;20024;-81
2021/06/07 04:56:40;;;;;;;7.78;2.92;;;;;;;24.25;33.76;102112.78;5075311;28;20458;-81
2021/06/07 04:59:06;;;;;;;6.13;2.78;;;;;;;24.29;33.77;102111.69;5076468;28;20452;-81
2021/06/07 05:01:32;;;;;;;13.38;3.22;;;;;;;24.30;33.87;102113.28;5076378;28;20024;-81
2021/06/07 05:03:57;;;;;;;9.73;3.00;;;;;;;24.32;33.98;102110.94;5076361;28;20037;-81
2021/06/07 05:06:23;;;;;;;9.93;3.33;;;;;;;24.35;33.79;102101.03;5076372;28;20046;-82
2021/06/07 05:08:48;;;;;;;7.57;3.03;;;;;;;24.34;33.69;102116.19;5076413;28;20458;-81
2021/06/07 05:11:15;;;;;;;11.95;4.10;;;;;;;24.39;33.77;102098.28;5074493;28;20051;-80
2021/06/07 05:13:41;;;;;;;8.27;2.92;;;;;;;24.39;33.98;102115.03;5076256;28;20116;-81
2021/06/07 05:16:07;;;;;;;10.40;4.00;;;;;;;24.32;34.23;102110.94;5076144;28;20128;-82
2021/06/07 05:18:33;;;;;;;6.97;2.83;;;;;;;24.43;33.79;102105.56;5076069;28;20042;-80
2021/06/07 05:20:59;;;;;;;5.95;3.38;;;;;;;24.44;33.96;102104.38;5076142;28;20035;-81
2021/06/07 05:23:25;;;;;;;12.45;4.35;;;;;;;24.49;33.82;102118.03;5075953;28;20032;-81
2021/06/07 05:25:51;;;;;;;7.03;2.95;;;;;;;24.50;34.10;102116.03;5075996;28;20029;-81
2021/06/07 05:28:18;;;;;;;6.97;2.70;;;;;;;24.55;34.08;102119.28;5074651;28;20513;-81
2021/06/07 05:30:46;;;;;;;5.70;2.83;;;;;;;24.65;33.93;102119.84;5075820;28;20056;-80
2021/06/07 05:33:12;;;;;;;7.47;3.15;;;;;;;24.62;34.17;102121.41;5075987;28;20032;-81
2021/06/07 05:35:42;;;;;;;5.97;2.80;;;;;;;24.62;34.11;102121.41;5075828;28;20103;-81
2021/06/07 05:38:11;;;;;;;7.00;2.90;;;;;;;24.76;33.81;102123.59;5076034;28;20153;-81
2021/06/07 05:40:38;;;;;;;11.00;2.97;;;;;;;24.80;33.74;102124.47;5075370;28;20065;-81
2021/06/07 05:43:04;;;;;;;9.55;3.95;;;;;;;24.87;33.96;102119.78;5074080;28;20225;-81
2021/06/07 05:45:30;;;;;;;7.78;3.83;;;;;;;24.92;33.62;102125.03;5074336;28;20421;-81
2021/06/07 05:47:58;;;;;;;7.57;4.00;;;;;;;24.90;34.01;102127.41;5075577;28;20031;-82
2021/06/07 05:50:26;;;;;;;8.45;3.35;;;;;;;24.98;33.65;102125.53;5075458;28;20115;-82
2021/06/07 05:52:52;;;;;;;6.78;3.15;;;;;;;25.11;33.42;102121.34;5075532;28;20024;-82
2021/06/07 05:55:18;;;;;;;6.45;3.22;;;;;;;25.13;33.63;102118.16;5075495;28;20093;-81
2021/06/07 05:57:46;;;;;;;5.30;3.00;;;;;;;25.21;33.61;102121.84;5075441;28;20048;-81
2021/06/07 06:00:13;;;;;;;4.95;3.05;;;;;;;25.29;33.64;102112.38;5075196;28;20094;-81
2021/06/07 06:02:38;;;;;;;4.95;2.92;;;;;;;25.27;33.76;102115.53;5075280;28;20017;-81
2021/06/07 06:05:05;;;;;;;5.13;2.70;;;;;;;25.42;33.59;102113.72;5073794;28;20162;-82
2021/06/07 06:07:31;;;;;;;10.63;3.03;;;;;;;25.43;33.52;102121.72;5075196;28;20024;-82
2021/06/07 06:09:56;;;;;;;5.80;2.85;;;;;;;25.53;33.41;102116.63;5075143;28;20032;-82
2021/06/07 06:12:22;;;;;;;6.15;2.88;;;;;;;25.60;33.46;102119.50;5074783;28;20395;-81
2021/06/07 06:14:47;;;;;;;6.35;2.60;;;;;;;25.65;33.16;102110.78;5074888;28;20410;-81
2021/06/07 06:17:13;;;;;;;8.10;3.47;;;;;;;25.70;33.42;102111.25;5073675;28;20024;-81
2021/06/07 06:19:39;;;;;;;5.07;2.63;;;;;;;25.73;33.36;102110.50;5074954;28;20036;-81
2021/06/07 06:22:06;;;;;;;8.55;2.30;;;;;;;25.80;33.31;102106.97;5074911;28;20034;-81
2021/06/07 06:24:33;;;;;;;7.60;2.40;;;;;;;25.87;32.91;102109.84;5074819;28;20420;-81
2021/06/07 06:26:59;;;;;;;5.05;2.70;;;;;;;25.92;32.73;102105.88;5073674;28;20090;-81
2021/06/07 06:29:25;;;;;;;5.25;2.80;;;;;;;26.00;32.63;102099.19;5073861;28;20025;-81
2021/06/07 06:31:50;;;;;;;5.70;2.38;;;;;;;26.10;32.65;102104.06;5073517;28;20394;-80
2021/06/07 06:34:16;;;;;;;5.35;2.83;;;;;;;26.16;32.62;102099.72;5073454;28;20028;-80
2021/06/07 06:36:41;;;;;;;6.47;3.47;;;;;;;26.19;32.97;102098.13;5066336;28;20043;-80
2021/06/07 06:39:07;;;;;;;8.35;3.50;;;;;;;26.40;32.55;102103.94;5064819;28;20112;-80
2021/06/07 06:41:34;;;;;;;6.40;2.80;;;;;;;26.47;32.74;102106.78;5053492;28;20429;-80
2021/06/07 06:43:59;;;;;;;6.00;3.63;;;;;;;26.46;32.52;102107.97;5053475;28;20028;-79
2021/06/07 06:46:26;;;;;;;5.63;3.42;;;;;;;26.52;32.83;102108.41;5053492;28;20075;-80
2021/06/07 06:48:52;;;;;;;8.85;3.72;;;;;;;26.52;32.72;102106.41;5056668;28;20030;-80
2021/06/07 06:51:17;;;;;;;9.80;3.40;;;;;;;26.71;32.33;102105.34;5057711;28;20111;-81
2021/06/07 06:53:43;;;;;;;7.90;4.18;;;;;;;26.75;32.44;102100.56;5055649;28;20590;-80
2021/06/07 06:56:09;;;;;;;8.75;3.42;;;;;;;26.82;32.06;102102.59;5057093;28;20074;-81
2021/06/07 06:58:34;;;;;;;7.13;3.28;;;;;;;27.10;32.05;102105.56;5056012;28;20486;-81
2021/06/07 07:01:00;;;;;;;6.38;2.80;;;;;;;27.18;31.89;102106.41;5057368;28;20787;-81
2021/06/07 07:03:26;;;;;;;8.30;2.50;;;;;;;27.21;31.77;102104.84;5038140;28;20396;-81
2021/06/07 07:05:53;;;;;;;7.82;3.10;;;;;;;27.48;31.37;102103.31;5038781;28;20608;-81
2021/06/07 07:08:21;;;;;;;9.55;2.78;;;;;;;27.49;31.40;102099.28;5055694;28;21631;-81
2021/06/07 07:10:48;;;;;;;5.00;2.53;;;;;;;27.63;31.36;102098.53;5057062;28;20042;-81
2021/06/07 07:13:13;;;;;;;17.42;6.68;;;;;;;27.67;31.02;102106.97;5056605;28;20491;-81
2021/06/07 07:15:39;;;;;;;7.13;3.00;;;;;;;27.79;31.27;102106.59;5052168;28;20029;-80
2021/06/07 07:18:07;;;;;;;9.57;3.75;;;;;;;27.87;30.99;102111.03;5056373;28;20028;-80
2021/06/07 07:20:33;;;;;;;16.02;4.05;;;;;;;27.93;30.89;102101.00;5055453;28;20020;-80
2021/06/07 07:22:59;;;;;;;8.80;3.53;;;;;;;28.12;30.54;102106.25;5056461;28;20607;-80
2021/06/07 07:25:25;;;;;;;10.70;3.83;;;;;;;28.23;29.99;102102.63;5055906;28;20032;-81
2021/06/07 07:27:51;;;;;;;6.88;3.20;;;;;;;28.22;30.03;102101.03;5054742;28;20028;-86
2021/06/07 07:30:19;;;;;;;8.55;3.83;;;;;;;28.23;29.76;102102.63;5045291;28;20024;-80
2021/06/07 07:32:47;;;;;;;7.00;3.97;;;;;;;28.20;29.75;102107.06;5072004;28;20375;-80
2021/06/07 07:35:14;;;;;;;11.60;3.42;;;;;;;28.27;29.56;102097.81;5071014;28;20029;-81
2021/06/07 07:37:41;;;;;;;10.32;3.38;;;;;;;28.38;29.38;102098.63;5048468;28;20470;-79
2021/06/07 07:40:09;;;;;;;7.35;3.10;;;;;;;28.40;29.64;102097.00;5051736;28;20057;-80
2021/06/07 07:42:35;;;;;;;9.82;3.38;;;;;;;28.43;29.55;102095.44;5053023;28;20025;-79
2021/06/07 07:45:03;;;;;;;7.43;3.47;;;;;;;28.59;29.75;102095.78;5051848;28;20033;-81
2021/06/07 07:47:29;;;;;;;6.43;3.40;;;;;;;28.51;30.24;102091.41;5052538;28;20025;-79
2021/06/07 07:49:55;;;;;;;7.03;3.47;;;;;;;28.54;30.77;102090.56;5070267;28;20111;-80
2021/06/07 07:52:23;;;;;;;6.47;3.35;;;;;;;28.62;30.86;102089.34;5072288;28;20119;-79
2021/06/07 07:54:53;;;;;;;7.47;3.38;;;;;;;28.66;31.02;102092.16;5071680;28;20040;-81
2021/06/07 07:57:19;;;;;;;5.82;3.20;;;;;;;28.80;30.56;102080.09;5070557;28;20081;-80
2021/06/07 07:59:45;;;;;;;13.48;3.28;;;;;;;28.93;30.33;102076.44;5068101;28;20020;-80
2021/06/07 08:02:11;;;;;;;9.43;3.13;;;;;;;28.97;30.35;102079.25;5071899;28;20050;-81
2021/06/07 08:04:38;;;;;;;7.70;3.08;;;;;;;28.86;30.68;102086.88;5070773;28;20028;-84
2021/06/07 08:07:04;;;;;;;12.32;3.38;;;;;;;29.02;30.58;102074.00;5057522;28;20028;-80
2021/06/07 08:09:32;;;;;;;9.77;3.47;;;;;;;29.13;30.23;102076.75;5068741;28;20029;-82
2021/06/07 08:12:01;;;;;;;9.57;3.40;;;;;;;29.12;30.63;102074.34;5049831;28;20764;-81
2021/06/07 08:14:27;;;;;;;10.52;3.95;;;;;;;29.18;30.38;102083.97;5068738;28;20093;-82
2021/06/07 08:16:54;;;;;;;8.70;3.65;;;;;;;29.30;30.16;102081.50;5068136;28;20114;-82
2021/06/07 08:19:20;;;;;;;8.77;3.22;;;;;;;29.21;30.18;102078.31;5067031;28;20146;-83
2021/06/07 08:21:46;;;;;;;7.50;3.22;;;;;;;29.07;30.47;102084.00;5066981;28;20119;-84
2021/06/07 08:24:11;;;;;;;4.75;3.22;;;;;;;29.13;30.41;102082.38;5066171;28;20064;-81
2021/06/07 08:26:37;;;;;;;10.88;3.50;;;;;;;29.41;29.95;102081.44;5067395;28;20032;-81
2021/06/07 08:29:03;;;;;;;11.15;4.15;;;;;;;29.25;29.99;102073.50;5066226;28;20150;-79
2021/06/07 08:31:29;;;;;;;6.78;3.65;;;;;;;29.35;29.83;102079.47;5046387;28;20031;-79
2021/06/07 08:33:55;;;;;;;6.00;2.85;;;;;;;29.21;30.00;102077.53;5068195;28;20020;-81
2021/06/07 08:36:20;;;;;;;9.23;2.97;;;;;;;29.38;29.77;102079.44;5065118;28;20029;-82
2021/06/07 08:38:46;;;;;;;3.55;2.53;;;;;;;29.52;29.49;102072.94;5050686;28;20485;-82
2021/06/07 08:41:13;;;;;;;8.07;3.10;;;;;;;29.60;29.50;102070.91;5049975;28;20142;-81
2021/06/07 08:43:39;;;;;;;6.25;3.40;;;;;;;29.39;29.57;102061.31;5068990;28;20653;-85
2021/06/07 08:46:05;;;;;;;7.30;3.58;;;;;;;29.42;29.41;102065.34;5067671;28;20041;-82
2021/06/07 08:48:30;;;;;;;10.27;3.38;;;;;;;29.48;29.60;102064.50;5050368;28;20474;-82
2021/06/07 08:51:02;;;;;;;7.15;3.22;;;;;;;29.45;29.13;102065.31;5068096;28;20044;-80
2021/06/07 08:53:29;;;;;;;7.40;3.20;;;;;;;29.44;28.93;102069.34;5067822;28;20058;-80
2021/06/07 08:55:56;;;;;;;5.90;2.75;;;;;;;29.53;28.80;102068.91;5067772;28;20063;-80
2021/06/07 08:58:22;;;;;;;6.65;3.40;;;;;;;29.70;28.50;102073.66;5050561;28;20025;-81
2021/06/07 09:00:47;;;;;;;9.05;4.07;;;;;;;29.73;28.44;102072.81;5068313;28;20039;-82
2021/06/07 09:03:20;;;;;;;6.20;3.03;;;;;;;29.51;28.29;102065.72;5050037;28;20020;-79
2021/06/07 09:05:52;;;;;;;8.48;3.47;;;;;;;29.83;28.11;102066.28;5065407;28;20491;-79
2021/06/07 09:08:18;;;;;;;6.85;2.90;;;;;;;29.55;27.90;102064.50;5066666;28;20086;-80
2021/06/07 09:10:47;;;;;;;7.57;3.08;;;;;;;29.43;28.18;102075.41;5050183;28;20025;-79
2021/06/07 09:13:15;;;;;;;8.27;3.38;;;;;;;29.42;28.27;102077.41;5057022;28;20103;-79
2021/06/07 09:15:53;;;;;;;8.85;3.05;;;;;;;29.28;28.22;102072.66;5057088;28;20542;-82
2021/06/07 09:18:33;;;;;;;5.93;3.13;;;;;;;29.70;27.65;102065.22;5029535;28;20026;-81
2021/06/07 09:21:09;;;;;;;6.43;2.92;;;;;;;29.35;27.76;102071.81;5010915;28;20076;-80
2021/06/07 09:23:44;;;;;;;7.45;2.95;;;;;;;29.46;27.53;102063.31;5027710;28;20517;-80
2021/06/07 09:26:26;;;;;;;21.27;4.10;;;;;;;29.37;27.76;102057.34;5053359;28;20021;-81
2021/06/07 09:28:56;;;;;;;6.38;3.25;;;;;;;29.21;28.10;102061.44;5048522;28;20550;-81
2021/06/07 09:31:30;;;;;;;5.85;3.03;;;;;;;29.15;27.70;102062.28;5049047;28;20052;-82
2021/06/07 09:33:56;;;;;;;6.47;3.05;;;;;;;28.96;28.12;102058.75;5049149;28;20016;-81
2021/06/07 09:36:30;;;;;;;7.15;3.03;;;;;;;28.90;28.24;102056.72;5024668;28;20143;-82
2021/06/07 09:39:07;;;;;;;8.43;3.80;;;;;;;28.99;27.87;102065.56;5048924;28;20021;-81
2021/06/07 09:41:48;;;;;;;8.13;3.65;;;;;;;28.87;28.68;102063.16;5035723;28;20033;-81
2021/06/07 09:44:28;;;;;;;5.05;2.95;;;;;;;29.12;27.93;102058.28;5054068;28;20072;-81
2021/06/07 09:47:21;;;;;;;8.00;3.35;;;;;;;29.50;28.02;102055.69;5054765;28;20021;-77
2021/06/07 09:49:56;;;;;;;7.57;3.13;;;;;;;29.61;27.52;102049.97;5054648;28;20053;-78
2021/06/07 09:52:31;;;;;;;6.03;2.95;;;;;;;29.24;27.63;102059.81;5059219;28;20024;-78
2021/06/07 09:55:08;;;;;;;4.90;3.53;;;;;;;29.33;27.81;102057.38;5064868;28;20029;-79
2021/06/07 09:57:40;;;;;;;14.30;5.15;;;;;;;29.32;27.77;102043.69;5056326;28;20032;-79
2021/06/07 10:00:07;;;;;;;10.05;4.00;;;;;;;29.18;27.61;102048.19;5052991;28;20025;-80
2021/06/07 10:02:36;;;;;;;8.73;3.58;;;;;;;29.07;28.23;102055.88;5052516;28;20028;-81
2021/06/07 10:05:03;;;;;;;8.77;3.33;;;;;;;29.21;27.80;102055.81;5052547;28;20108;-79
2021/06/07 10:07:28;;;;;;;6.15;3.25;;;;;;;29.53;27.51;102052.03;5056693;28;20383;-76
2021/06/07 10:10:09;;;;;;;8.60;3.53;;;;;;;29.27;27.54;102050.56;5044276;28;20039;-79
2021/06/07 10:12:36;;;;;;;8.65;3.88;;;;;;;29.29;27.36;102040.47;5065055;28;20491;-81
2021/06/07 10:15:02;;;;;;;8.27;3.25;;;;;;;29.53;27.22;102052.03;5073919;28;20037;-80
2021/06/07 10:17:27;;;;;;;6.65;3.50;;;;;;;29.62;27.33;102051.56;5073398;28;20031;-80
2021/06/07 10:22:38;;;;;;;17.08;5.85;;;;;;;29.48;27.54;102049.63;5073954;28;20039;-80
2021/06/07 10:25:08;;;;;;;7.13;3.10;;;;;;;29.34;27.31;102049.72;5073544;28;20036;-80
2021/06/07 10:27:35;;;;;;;12.30;4.40;;;;;;;29.29;27.71;102048.13;5073806;28;20036;-80
2021/06/07 10:30:02;;;;;;;7.13;3.88;;;;;;;29.38;27.63;102047.66;5073911;28;20040;-81
2021/06/07 10:32:29;;;;;;;13.52;4.93;;;;;;;29.12;27.94;102047.00;5073773;28;20064;-80
2021/06/07 10:35:01;;;;;;;7.00;4.03;;;;;;;29.34;27.82;102049.72;5073784;28;20047;-80
2021/06/07 10:37:28;;;;;;;14.73;4.63;;;;;;;29.65;27.65;102045.91;5055108;28;20036;-81
2021/06/07 10:40:13;;;;;;;9.48;3.90;;;;;;;29.52;27.78;102041.97;5053705;28;20036;-81
2021/06/07 10:42:59;;;;;;;10.05;5.07;;;;;;;29.40;28.22;102039.63;5035648;28;20036;-82
2021/06/07 10:45:29;;;;;;;9.45;4.35;;;;;;;29.68;27.66;102042.25;5053608;28;20467;-78
2021/06/07 10:47:55;;;;;;;;;;;;;;;29.64;27.32;102040.72;5036103;28;20071;-82
2021/06/07 10:50:24;;;;;;;9.93;3.78;;;;;;;30.32;27.04;102041.75;5034654;28;20417;-82
2021/06/07 10:53:01;;;;;;;10.43;4.15;;;;;;;30.23;26.97;102046.25;5052358;28;20666;-82
2021/06/07 10:55:32;;;;;;;8.75;4.10;;;;;;;30.20;27.15;102042.25;5051735;28;20028;-81
2021/06/07 10:58:02;;;;;;;8.00;3.95;;;;;;;30.22;26.81;102047.47;5033486;28;20029;-82
2021/06/07 11:00:39;;;;;;;;;;;;;;;29.60;27.66;102032.25;5052053;28;20021;-81
2021/06/07 11:03:15;;;;;;;6.90;3.97;;;;;;;29.72;27.39;102034.59;5051426;28;19924;-82
2021/06/07 11:05:41;;;;;;;9.60;4.13;;;;;;;29.87;27.24;102038.09;5051204;28;20021;-81
2021/06/07 11:08:16;;;;;;;12.90;4.85;;;;;;;29.67;27.94;102032.22;5032563;28;20040;-81
2021/06/07 11:10:43;;;;;;;7.57;4.47;;;;;;;29.54;28.06;102026.25;5035249;28;20025;-81
2021/06/07 11:13:17;;;;;;;10.70;4.75;;;;;;;29.65;27.74;102023.38;5052930;28;20047;-81
2021/06/07 11:15:55;;;;;;;10.57;4.50;;;;;;;29.36;28.23;102027.59;5055755;28;20063;-81
2021/06/07 11:18:34;;;;;;;9.77;5.03;;;;;;;29.39;27.79;102021.13;5035118;28;20029;-81
2021/06/07 11:21:06;;;;;;;12.77;4.80;;;;;;;29.45;28.00;102027.91;5052125;28;20032;-82
2021/06/07 11:23:40;;;;;;;11.40;3.50;;;;;;;29.38;28.32;102017.50;5054919;28;20295;-82
2021/06/07 11:26:08;;;;;;;9.13;4.60;;;;;;;29.15;28.32;102015.22;5072727;28;20482;-82
2021/06/07 11:28:44;;;;;;;7.82;4.15;;;;;;;29.22;28.62;102015.19;5054935;28;20028;-82
2021/06/07 11:31:17;;;;;;;9.73;4.53;;;;;;;29.22;28.90;102011.56;5054733;28;20086;-81